createdAt,value
2022-11-27T00:01:00.042Z,101146.94
2022-11-27T00:02:01.633Z,101146.06
2022-11-27T00:03:03.454Z,101140.97
2022-11-27T00:04:09.276Z,101137.53
2022-11-27T00:05:10.903Z,101132.34
2022-11-27T00:06:15.790Z,101136.72
2022-11-27T00:07:17.462Z,101125.59
2022-11-27T00:08:19.080Z,101131.63
2022-11-27T00:09:20.864Z,101111.78
2022-11-27T00:10:22.809Z,101121.31
2022-11-27T00:11:26.132Z,101117.06
2022-11-27T00:12:27.784Z,101116.19
2022-11-27T00:13:29.677Z,101111.97
2022-11-27T00:14:31.366Z,101107.66
2022-11-27T00:15:33.017Z,101107.66
2022-11-27T00:16:34.636Z,101107.63
2022-11-27T00:17:36.162Z,101102.41
2022-11-27T00:18:38.715Z,101101.53
2022-11-27T00:19:40.722Z,101089.47
2022-11-27T00:20:42.568Z,101092.09
2022-11-27T00:21:44.323Z,101086.03
2022-11-27T00:22:45.960Z,101080.88
2022-11-27T00:23:47.607Z,101085.19
2022-11-27T00:24:49.177Z,101077.41
2022-11-27T00:25:53.736Z,101080.00
2022-11-27T00:26:56.031Z,101076.53
2022-11-27T00:27:57.652Z,101079.03
2022-11-27T00:28:59.273Z,101078.97
2022-11-27T00:30:00.840Z,101078.09
2022-11-27T00:31:08.869Z,101069.44
2022-11-27T00:32:10.461Z,101072.91
2022-11-27T00:33:12.552Z,101074.63
2022-11-27T00:34:14.398Z,101080.66
2022-11-27T00:35:16.237Z,101073.88
2022-11-27T00:36:17.947Z,101067.84
2022-11-27T00:37:19.746Z,101073.00
2022-11-27T00:38:21.955Z,101075.66
2022-11-27T00:39:23.567Z,101074.91
2022-11-27T00:40:25.190Z,101077.41
2022-11-27T00:41:29.472Z,101068.78
2022-11-27T00:42:31.039Z,101083.47
2022-11-27T00:43:43.201Z,101073.16
2022-11-27T00:44:45.955Z,101085.22
2022-11-27T00:45:50.419Z,101072.25
2022-11-27T00:46:52.095Z,101082.63
2022-11-27T00:47:53.886Z,101083.50
2022-11-27T00:48:56.975Z,101081.81
2022-11-27T00:49:58.816Z,101080.16
2022-11-27T00:51:05.881Z,101080.16
2022-11-27T00:52:07.859Z,101085.38
2022-11-27T00:53:09.568Z,101082.78
2022-11-27T00:54:11.201Z,101069.78
2022-11-27T00:55:12.871Z,101083.66
2022-11-27T00:56:20.291Z,101082.78
2022-11-27T00:57:21.855Z,101075.84
2022-11-27T00:58:24.259Z,101082.78
2022-11-27T00:59:25.951Z,101084.53
2022-11-27T01:00:27.574Z,101080.19
2022-11-27T01:01:32.277Z,101088.81
2022-11-27T01:02:34.124Z,101080.97
2022-11-27T01:03:35.937Z,101076.66
2022-11-27T01:04:37.809Z,101069.78
2022-11-27T01:05:39.659Z,101078.38
2022-11-27T01:06:41.974Z,101073.28
2022-11-27T01:07:43.594Z,101078.50
2022-11-27T01:08:45.618Z,101082.78
2022-11-27T01:09:47.201Z,101075.94
2022-11-27T01:10:55.077Z,101074.16
2022-11-27T01:11:57.160Z,101068.22
2022-11-27T01:12:59.016Z,101068.28
2022-11-27T01:14:04.033Z,101071.72
2022-11-27T01:15:06.037Z,101076.81
2022-11-27T01:16:13.418Z,101077.66
2022-11-27T01:17:15.062Z,101072.34
2022-11-27T01:18:16.714Z,101073.81
2022-11-27T01:19:19.183Z,101067.72
2022-11-27T01:20:20.728Z,101066.78
2022-11-27T01:21:22.674Z,101070.94
2022-11-27T01:22:24.271Z,101062.25
2022-11-27T01:23:26.469Z,101053.53
2022-11-27T01:24:28.056Z,101056.22
2022-11-27T01:25:29.592Z,101066.56
2022-11-27T01:26:31.807Z,101066.56
2022-11-27T01:27:33.361Z,101063.19
2022-11-27T01:28:36.315Z,101061.34
2022-11-27T01:29:37.888Z,101055.53
2022-11-27T01:30:39.803Z,101058.16
2022-11-27T01:31:41.697Z,101052.00
2022-11-27T01:32:43.371Z,101060.69
2022-11-27T01:33:46.332Z,101060.63
2022-11-27T01:34:47.870Z,101052.16
2022-11-27T01:35:57.637Z,101059.06
2022-11-27T01:36:59.268Z,101058.19
2022-11-27T01:38:00.946Z,101058.16
2022-11-27T01:39:03.470Z,101053.88
2022-11-27T01:40:05.864Z,101054.75
2022-11-27T01:41:15.018Z,101055.56
2022-11-27T01:42:16.754Z,101067.59
2022-11-27T01:43:18.464Z,101059.88
2022-11-27T01:44:25.876Z,101057.38
2022-11-27T01:45:27.506Z,101064.28
2022-11-27T01:46:39.323Z,101062.63
2022-11-27T01:47:52.467Z,101058.44
2022-11-27T01:48:59.614Z,101057.63
2022-11-27T01:50:09.614Z,101061.13
2022-11-27T01:51:11.612Z,101061.97
2022-11-27T01:52:19.801Z,101064.59
2022-11-27T01:53:21.467Z,101065.50
2022-11-27T01:54:29.377Z,101040.47
2022-11-27T01:55:36.112Z,101061.22
2022-11-27T01:56:39.990Z,101056.16
2022-11-27T01:57:45.699Z,101063.13
2022-11-27T01:58:47.781Z,101061.44
2022-11-27T01:59:52.338Z,101064.84
2022-11-27T02:00:54.412Z,101065.72
2022-11-27T02:01:56.296Z,101064.00
2022-11-27T02:02:58.334Z,101058.03
2022-11-27T02:04:01.795Z,101065.72
2022-11-27T02:05:03.635Z,101057.91
2022-11-27T02:06:05.490Z,101057.03
2022-11-27T02:07:07.175Z,101065.63
2022-11-27T02:08:12.835Z,101050.97
2022-11-27T02:09:14.561Z,101058.72
2022-11-27T02:10:17.157Z,101057.84
2022-11-27T02:11:33.628Z,101051.00
2022-11-27T02:12:50.891Z,101048.50
2022-11-27T02:14:08.771Z,101052.81
2022-11-27T02:15:25.456Z,101048.50
2022-11-27T02:16:45.784Z,101051.97
2022-11-27T02:18:01.502Z,101051.13
2022-11-27T02:19:40.601Z,101067.50
2022-11-27T02:21:04.985Z,101052.97
2022-11-27T02:22:29.057Z,101052.16
2022-11-27T02:23:55.011Z,101055.66
2022-11-27T02:25:03.100Z,101059.19
2022-11-27T02:26:50.391Z,101053.25
2022-11-27T02:28:00.954Z,101063.56
2022-11-27T02:29:08.614Z,101064.47
2022-11-27T02:30:10.932Z,101063.63
2022-11-27T02:31:22.361Z,101073.09
2022-11-27T02:32:31.220Z,101070.59
2022-11-27T02:33:34.852Z,101070.63
2022-11-27T02:34:45.591Z,101079.31
2022-11-27T02:35:56.658Z,101070.72
2022-11-27T02:37:13.533Z,101076.75
2022-11-27T02:38:28.692Z,101075.81
2022-11-27T02:39:41.143Z,101080.25
2022-11-27T02:40:56.257Z,101082.84
2022-11-27T02:42:06.137Z,101082.03
2022-11-27T02:43:19.249Z,101080.31
2022-11-27T02:44:22.853Z,101077.69
2022-11-27T02:45:31.802Z,101080.38
2022-11-27T02:46:34.582Z,101073.53
2022-11-27T02:47:39.976Z,101071.78
2022-11-27T02:48:50.555Z,101074.38
2022-11-27T02:49:57.024Z,101065.81
2022-11-27T02:50:59.025Z,101064.97
2022-11-27T02:52:02.515Z,101064.03
2022-11-27T02:53:11.023Z,101071.84
2022-11-27T02:54:19.470Z,101074.44
2022-11-27T02:55:25.733Z,101072.72
2022-11-27T02:56:29.791Z,101063.28
2022-11-27T02:57:33.435Z,101062.47
2022-11-27T02:58:37.344Z,101057.31
2022-11-27T02:59:41.064Z,101058.19
2022-11-27T03:00:44.886Z,101057.34
2022-11-27T03:01:53.428Z,101048.81
2022-11-27T03:03:00.400Z,101040.19
2022-11-27T03:04:07.514Z,101042.81
2022-11-27T03:05:15.345Z,101035.09
2022-11-27T03:06:31.363Z,101035.13
2022-11-27T03:08:01.460Z,101026.59
2022-11-27T03:09:06.810Z,101029.19
2022-11-27T03:10:20.626Z,101030.97
2022-11-27T03:11:23.076Z,101020.66
2022-11-27T03:12:24.786Z,101023.22
2022-11-27T03:13:27.739Z,101006.06
2022-11-27T03:14:29.539Z,101022.50
2022-11-27T03:16:05.648Z,101013.88
2022-11-27T03:17:25.801Z,101012.22
2022-11-27T03:18:39.515Z,101007.06
2022-11-27T03:20:03.433Z,101002.81
2022-11-27T03:21:29.873Z,101013.16
2022-11-27T03:22:31.857Z,100996.81
2022-11-27T03:23:33.385Z,100994.25
2022-11-27T03:24:36.020Z,100996.03
2022-11-27T03:25:37.611Z,101002.09
2022-11-27T03:26:40.811Z,101000.38
2022-11-27T03:28:10.512Z,100992.66
2022-11-27T03:29:21.683Z,100981.38
2022-11-27T03:30:23.471Z,100989.22
2022-11-27T03:31:26.354Z,100985.75
2022-11-27T03:32:30.210Z,100980.56
2022-11-27T03:33:31.947Z,100978.84
2022-11-27T03:34:34.104Z,100990.91
2022-11-27T03:35:35.789Z,100976.22
2022-11-27T03:36:37.475Z,100982.25
2022-11-27T03:37:39.346Z,100986.59
2022-11-27T03:38:42.195Z,100971.06
2022-11-27T03:39:44.270Z,100978.91
2022-11-27T03:41:01.752Z,100979.72
2022-11-27T03:42:11.530Z,100980.59
2022-11-27T03:43:24.094Z,100971.91
2022-11-27T03:44:43.930Z,100974.53
2022-11-27T03:46:05.590Z,100972.81
2022-11-27T03:47:19.502Z,100970.22
2022-11-27T03:48:30.348Z,100971.09
2022-11-27T03:49:47.286Z,100968.53
2022-11-27T03:51:04.071Z,100959.88
2022-11-27T03:52:44.508Z,100970.28
2022-11-27T03:54:02.081Z,100968.53
2022-11-27T03:55:17.240Z,100971.06
2022-11-27T03:56:27.101Z,100971.06
2022-11-27T03:57:33.782Z,100981.41
2022-11-27T03:58:44.859Z,100977.06
2022-11-27T03:59:50.418Z,100968.44
2022-11-27T04:00:53.139Z,100964.13
2022-11-27T04:01:54.807Z,100967.53
2022-11-27T04:02:56.383Z,100963.16
2022-11-27T04:03:58.002Z,100971.81
2022-11-27T04:04:59.626Z,100963.16
2022-11-27T04:06:01.233Z,100970.91
2022-11-27T04:07:02.875Z,100967.44
2022-11-27T04:08:04.926Z,100966.56
2022-11-27T04:09:06.997Z,100960.50
2022-11-27T04:10:09.873Z,100965.69
2022-11-27T04:11:11.424Z,100955.41
2022-11-27T04:12:12.998Z,100963.97
2022-11-27T04:13:15.490Z,100970.03
2022-11-27T04:14:17.062Z,100961.41
2022-11-27T04:15:18.907Z,100954.50
2022-11-27T04:16:20.978Z,100956.25
2022-11-27T04:17:22.786Z,100958.00
2022-11-27T04:18:24.426Z,100957.13
2022-11-27T04:19:26.033Z,100952.75
2022-11-27T04:20:29.110Z,100966.56
2022-11-27T04:21:30.731Z,100969.94
2022-11-27T04:22:32.789Z,100969.88
2022-11-27T04:23:34.478Z,100968.13
2022-11-27T04:24:36.154Z,100965.53
2022-11-27T04:25:37.711Z,100967.19
2022-11-27T04:26:39.364Z,100965.47
2022-11-27T04:27:41.058Z,100962.00
2022-11-27T04:28:42.694Z,100974.03
2022-11-27T04:29:44.251Z,100964.59
2022-11-27T04:30:50.407Z,100971.44
2022-11-27T04:31:51.990Z,100968.03
2022-11-27T04:32:53.665Z,100965.47
2022-11-27T04:33:55.301Z,100962.91
2022-11-27T04:34:56.891Z,100960.34
2022-11-27T04:35:58.487Z,100962.09
2022-11-27T04:37:00.082Z,100961.22
2022-11-27T04:38:01.809Z,100953.53
2022-11-27T04:39:03.573Z,100957.81
2022-11-27T04:40:06.087Z,100960.44
2022-11-27T04:41:07.857Z,100960.44
2022-11-27T04:42:09.549Z,100956.19
2022-11-27T04:43:11.275Z,100963.09
2022-11-27T04:44:13.408Z,100963.16
2022-11-27T04:45:14.981Z,100957.13
2022-11-27T04:46:16.560Z,100947.72
2022-11-27T04:47:18.248Z,100958.03
2022-11-27T04:48:19.942Z,100950.34
2022-11-27T04:49:21.465Z,100946.91
2022-11-27T04:50:23.046Z,100952.97
2022-11-27T04:51:24.602Z,100949.50
2022-11-27T04:52:26.223Z,100951.22
2022-11-27T04:53:27.950Z,100949.47
2022-11-27T04:54:29.544Z,100950.38
2022-11-27T04:55:31.150Z,100957.28
2022-11-27T04:56:32.715Z,100946.09
2022-11-27T04:57:34.259Z,100959.91
2022-11-27T04:58:35.888Z,100955.59
2022-11-27T04:59:38.216Z,100950.38
2022-11-27T05:00:39.819Z,100957.28
2022-11-27T05:01:41.491Z,100954.66
2022-11-27T05:02:43.200Z,100952.88
2022-11-27T05:03:47.339Z,100951.13
2022-11-27T05:04:49.129Z,100951.13
2022-11-27T05:05:57.575Z,100950.25
2022-11-27T05:06:59.159Z,100949.38
2022-11-27T05:08:00.732Z,100950.22
2022-11-27T05:09:02.479Z,100946.75
2022-11-27T05:10:05.483Z,100949.34
2022-11-27T05:11:11.518Z,100940.72
2022-11-27T05:12:13.354Z,100943.28
2022-11-27T05:13:14.988Z,100944.13
2022-11-27T05:14:20.786Z,100946.66
2022-11-27T05:15:22.400Z,100942.34
2022-11-27T05:16:24.150Z,100956.97
2022-11-27T05:17:25.839Z,100937.19
2022-11-27T05:18:27.631Z,100938.88
2022-11-27T05:19:30.982Z,100938.94
2022-11-27T05:20:32.628Z,100939.81
2022-11-27T05:21:34.432Z,100934.63
2022-11-27T05:22:36.134Z,100937.22
2022-11-27T05:23:38.043Z,100945.00
2022-11-27T05:24:39.956Z,100932.09
2022-11-27T05:25:41.897Z,100933.03
2022-11-27T05:26:44.018Z,100931.28
2022-11-27T05:27:45.702Z,100933.03
2022-11-27T05:28:47.515Z,100939.94
2022-11-27T05:29:49.151Z,100940.81
2022-11-27T05:30:51.273Z,100933.97
2022-11-27T05:31:53.608Z,100939.09
2022-11-27T05:32:55.376Z,100939.06
2022-11-27T05:33:57.379Z,100936.47
2022-11-27T05:34:58.891Z,100941.63
2022-11-27T05:36:00.430Z,100935.66
2022-11-27T05:37:02.019Z,100933.91
2022-11-27T05:38:03.690Z,100939.03
2022-11-27T05:39:06.977Z,100942.47
2022-11-27T05:40:09.029Z,100946.78
2022-11-27T05:41:10.735Z,100938.13
2022-11-27T05:42:12.388Z,100939.81
2022-11-27T05:43:14.107Z,100937.25
2022-11-27T05:44:16.016Z,100937.25
2022-11-27T05:45:17.709Z,100929.44
2022-11-27T05:46:21.532Z,100934.69
2022-11-27T05:47:23.470Z,100919.13
2022-11-27T05:48:25.032Z,100937.13
2022-11-27T05:49:26.797Z,100942.28
2022-11-27T05:50:28.523Z,100938.88
2022-11-27T05:51:30.165Z,100943.13
2022-11-27T05:52:31.929Z,100951.72
2022-11-27T05:53:34.260Z,100937.13
2022-11-27T05:54:35.904Z,100936.25
2022-11-27T05:55:37.543Z,100945.69
2022-11-27T05:56:39.238Z,100944.03
2022-11-27T05:57:41.029Z,100945.69
2022-11-27T05:58:44.643Z,100948.31
2022-11-27T05:59:46.318Z,100944.03
2022-11-27T06:00:47.929Z,100944.03
2022-11-27T06:01:49.721Z,100941.47
2022-11-27T06:02:51.640Z,100944.88
2022-11-27T06:03:53.456Z,100945.78
2022-11-27T06:04:55.148Z,100944.09
2022-11-27T06:05:57.290Z,100943.22
2022-11-27T06:06:59.043Z,100937.19
2022-11-27T06:08:00.813Z,100931.97
2022-11-27T06:09:04.037Z,100924.22
2022-11-27T06:10:07.992Z,100925.94
2022-11-27T06:11:13.605Z,100925.94
2022-11-27T06:12:15.431Z,100918.25
2022-11-27T06:13:17.181Z,100920.88
2022-11-27T06:14:18.827Z,100902.72
2022-11-27T06:15:20.460Z,100913.09
2022-11-27T06:16:24.260Z,100914.84
2022-11-27T06:17:26.148Z,100907.09
2022-11-27T06:18:27.958Z,100903.66
2022-11-27T06:19:30.368Z,100887.22
2022-11-27T06:20:32.197Z,100902.78
2022-11-27T06:21:33.944Z,100885.56
2022-11-27T06:22:35.571Z,100890.72
2022-11-27T06:23:37.936Z,100887.28
2022-11-27T06:24:39.831Z,100877.81
2022-11-27T06:25:41.656Z,100889.88
2022-11-27T06:26:43.326Z,100881.25
2022-11-27T06:27:44.980Z,100882.13
2022-11-27T06:28:47.536Z,100865.78
2022-11-27T06:29:49.083Z,100862.34
2022-11-27T06:30:51.004Z,100863.25
2022-11-27T06:31:52.821Z,100858.09
2022-11-27T06:32:54.443Z,100858.09
2022-11-27T06:33:57.219Z,100852.94
2022-11-27T06:34:59.152Z,100838.25
2022-11-27T06:36:01.307Z,100839.13
2022-11-27T06:37:02.950Z,100848.66
2022-11-27T06:38:04.822Z,100842.56
2022-11-27T06:39:08.155Z,100852.06
2022-11-27T06:40:10.245Z,100858.97
2022-11-27T06:41:15.061Z,100864.94
2022-11-27T06:42:16.960Z,100854.63
2022-11-27T06:43:18.664Z,100851.19
2022-11-27T06:44:20.784Z,100849.47
2022-11-27T06:45:22.520Z,100850.34
2022-11-27T06:46:24.613Z,100848.69
2022-11-27T06:47:26.213Z,100846.97
2022-11-27T06:48:28.138Z,100853.91
2022-11-27T06:49:30.054Z,100855.66
2022-11-27T06:50:31.793Z,100844.50
2022-11-27T06:51:33.415Z,100845.41
2022-11-27T06:52:40.121Z,100847.97
2022-11-27T06:53:43.499Z,100849.69
2022-11-27T06:54:45.192Z,100860.03
2022-11-27T06:55:46.813Z,100860.06
2022-11-27T06:56:50.489Z,100854.91
2022-11-27T06:57:52.096Z,100859.19
2022-11-27T06:58:55.707Z,100859.22
2022-11-27T06:59:57.241Z,100864.38
2022-11-27T07:01:00.567Z,100869.56
2022-11-27T07:02:02.235Z,100860.13
2022-11-27T07:03:03.883Z,100868.75
2022-11-27T07:04:05.566Z,100869.66
2022-11-27T07:05:07.587Z,100866.16
2022-11-27T07:06:11.914Z,100862.78
2022-11-27T07:07:13.560Z,100855.88
2022-11-27T07:08:15.254Z,100859.34
2022-11-27T07:09:16.747Z,100855.94
2022-11-27T07:10:18.340Z,100861.94
2022-11-27T07:11:22.516Z,100859.34
2022-11-27T07:12:24.163Z,100847.28
2022-11-27T07:13:25.836Z,100848.19
2022-11-27T07:14:27.413Z,100840.44
2022-11-27T07:15:29.270Z,100841.28
2022-11-27T07:16:34.259Z,100843.91
2022-11-27T07:17:35.852Z,100836.16
2022-11-27T07:18:43.005Z,100827.53
2022-11-27T07:19:44.669Z,100828.34
2022-11-27T07:20:56.618Z,100814.50
2022-11-27T07:21:58.419Z,100823.16
2022-11-27T07:23:00.122Z,100824.00
2022-11-27T07:24:01.761Z,100815.34
2022-11-27T07:25:03.708Z,100829.13
2022-11-27T07:26:13.893Z,100827.44
2022-11-27T07:27:15.472Z,100834.34
2022-11-27T07:28:19.047Z,100841.25
2022-11-27T07:29:20.894Z,100852.44
2022-11-27T07:30:22.628Z,100856.75
2022-11-27T07:31:29.335Z,100849.88
2022-11-27T07:32:31.758Z,100846.50
2022-11-27T07:33:33.483Z,100853.41
2022-11-27T07:34:35.034Z,100843.06
2022-11-27T07:35:36.665Z,100828.41
2022-11-27T07:36:38.354Z,100826.69
2022-11-27T07:37:39.925Z,100819.81
2022-11-27T07:38:41.977Z,100820.69
2022-11-27T07:40:01.367Z,100812.91
2022-11-27T07:41:05.492Z,100819.81
2022-11-27T07:42:36.374Z,100832.78
2022-11-27T07:43:29.570Z,100833.72
2022-11-27T07:44:31.275Z,100842.34
2022-11-27T07:45:33.245Z,100847.53
2022-11-27T07:46:35.022Z,100860.47
2022-11-27T07:47:37.434Z,100864.78
2022-11-27T07:48:39.255Z,100872.56
2022-11-27T07:49:40.994Z,100868.25
2022-11-27T07:50:42.737Z,100868.22
2022-11-27T07:51:44.443Z,100872.59
2022-11-27T07:52:46.179Z,100867.41
2022-11-27T07:53:48.810Z,100868.28
2022-11-27T07:54:50.398Z,100864.00
2022-11-27T07:55:52.106Z,100857.13
2022-11-27T07:56:53.681Z,100851.97
2022-11-27T07:57:55.218Z,100860.63
2022-11-27T07:58:58.154Z,100856.34
2022-11-27T07:59:59.714Z,100839.13
2022-11-27T08:01:01.480Z,100833.09
2022-11-27T08:02:03.450Z,100846.94
2022-11-27T08:03:05.049Z,100852.94
2022-11-27T08:04:06.681Z,100857.28
2022-11-27T08:05:12.709Z,100856.41
2022-11-27T08:06:21.489Z,100866.75
2022-11-27T08:07:30.081Z,100861.59
2022-11-27T08:08:33.048Z,100851.25
2022-11-27T08:09:34.721Z,100843.50
2022-11-27T08:10:37.353Z,100844.34
2022-11-27T08:11:39.572Z,100829.69
2022-11-27T08:12:41.132Z,100827.97
2022-11-27T08:13:42.792Z,100818.47
2022-11-27T08:14:44.508Z,100815.03
2022-11-27T08:15:46.279Z,100809.88
2022-11-27T08:16:47.852Z,100798.66
2022-11-27T08:17:49.555Z,100795.16
2022-11-27T08:18:51.226Z,100801.22
2022-11-27T08:19:52.903Z,100795.22
2022-11-27T08:20:54.589Z,100793.50
2022-11-27T08:21:57.520Z,100796.09
2022-11-27T08:23:02.724Z,100796.13
2022-11-27T08:24:05.245Z,100801.31
2022-11-27T08:25:07.487Z,100796.97
2022-11-27T08:26:10.918Z,100795.28
2022-11-27T08:27:12.496Z,100789.22
2022-11-27T08:28:14.049Z,100783.16
2022-11-27T08:29:15.705Z,100788.34
2022-11-27T08:30:17.809Z,100783.19
2022-11-27T08:31:20.920Z,100771.09
2022-11-27T08:32:25.590Z,100784.88
2022-11-27T08:33:28.035Z,100779.72
2022-11-27T08:34:29.684Z,100780.56
2022-11-27T08:35:31.208Z,100780.56
2022-11-27T08:36:33.167Z,100783.13
2022-11-27T08:37:35.074Z,100785.72
2022-11-27T08:38:36.670Z,100759.81
2022-11-27T08:39:38.642Z,100777.94
2022-11-27T08:40:40.348Z,100778.81
2022-11-27T08:41:41.946Z,100769.38
2022-11-27T08:42:43.540Z,100784.03
2022-11-27T08:43:45.127Z,100767.66
2022-11-27T08:44:46.765Z,100768.50
2022-11-27T08:45:48.969Z,100755.59
2022-11-27T08:46:50.648Z,100766.78
2022-11-27T08:47:52.300Z,100759.03
2022-11-27T08:48:53.935Z,100748.69
2022-11-27T08:49:55.589Z,100761.63
2022-11-27T08:50:57.165Z,100767.66
2022-11-27T08:51:58.770Z,100762.47
2022-11-27T08:53:00.381Z,100768.50
2022-11-27T08:54:02.150Z,100767.66
2022-11-27T08:55:04.838Z,100752.97
2022-11-27T08:56:14.391Z,100783.13
2022-11-27T08:57:16.729Z,100767.56
2022-11-27T08:58:18.471Z,100765.88
2022-11-27T08:59:20.151Z,100762.38
2022-11-27T09:00:27.611Z,100765.84
2022-11-27T09:01:32.661Z,100783.09
2022-11-27T09:02:34.935Z,100785.69
2022-11-27T09:03:36.991Z,100792.59
2022-11-27T09:04:38.950Z,100797.81
2022-11-27T09:05:44.792Z,100790.88
2022-11-27T09:06:48.766Z,100792.59
2022-11-27T09:07:51.389Z,100785.69
2022-11-27T09:08:53.169Z,100782.25
2022-11-27T09:09:54.706Z,100783.09
2022-11-27T09:11:00.282Z,100786.56
2022-11-27T09:12:01.855Z,100789.97
2022-11-27T09:13:03.457Z,100795.16
2022-11-27T09:14:06.168Z,100792.53
2022-11-27T09:15:08.322Z,100794.25
2022-11-27T09:16:13.254Z,100801.16
2022-11-27T09:17:14.953Z,100791.66
2022-11-27T09:18:16.523Z,100787.31
2022-11-27T09:19:18.176Z,100792.50
2022-11-27T09:20:20.191Z,100789.94
2022-11-27T09:21:24.627Z,100793.41
2022-11-27T09:22:26.194Z,100796.88
2022-11-27T09:23:28.846Z,100787.34
2022-11-27T09:24:30.865Z,100787.34
2022-11-27T09:25:32.584Z,100793.38
2022-11-27T09:26:34.218Z,100782.16
2022-11-27T09:27:37.716Z,100789.91
2022-11-27T09:28:40.607Z,100783.88
2022-11-27T09:29:42.253Z,100781.28
2022-11-27T09:30:44.148Z,100784.72
2022-11-27T09:31:45.989Z,100786.44
2022-11-27T09:32:47.590Z,100780.41
2022-11-27T09:33:49.889Z,100781.28
2022-11-27T09:34:52.236Z,100776.94
2022-11-27T09:35:54.018Z,100767.44
2022-11-27T09:36:55.600Z,100767.38
2022-11-27T09:37:57.278Z,100769.09
2022-11-27T09:38:59.611Z,100763.91
2022-11-27T09:40:01.179Z,100765.63
2022-11-27T09:41:11.702Z,100766.47
2022-11-27T09:42:29.929Z,100762.13
2022-11-27T09:43:36.666Z,100762.16
2022-11-27T09:44:46.659Z,100758.72
2022-11-27T09:45:55.819Z,100754.44
2022-11-27T09:47:01.596Z,100765.63
2022-11-27T09:48:07.355Z,100757.81
2022-11-27T09:49:18.118Z,100770.78
2022-11-27T09:50:25.017Z,100761.25
2022-11-27T09:51:40.098Z,100765.53
2022-11-27T09:52:46.291Z,100771.56
2022-11-27T09:53:56.060Z,100762.09
2022-11-27T09:55:03.098Z,100758.59
2022-11-27T09:56:11.445Z,100762.91
2022-11-27T09:57:20.808Z,100766.31
2022-11-27T09:58:27.783Z,100769.75
2022-11-27T09:59:49.123Z,100768.00
2022-11-27T10:00:53.671Z,100764.53
2022-11-27T10:01:55.597Z,100766.22
2022-11-27T10:02:57.376Z,100748.13
2022-11-27T10:04:01.236Z,100768.78
2022-11-27T10:05:15.493Z,100761.00
2022-11-27T10:06:39.251Z,100756.66
2022-11-27T10:08:12.854Z,100761.03
2022-11-27T10:09:22.813Z,100762.81
2022-11-27T10:10:39.656Z,100765.44
2022-11-27T10:12:15.347Z,100757.63
2022-11-27T10:13:39.365Z,100761.06
2022-11-27T10:14:56.928Z,100761.91
2022-11-27T10:16:15.413Z,100761.03
2022-11-27T10:17:17.112Z,100761.84
2022-11-27T10:18:41.836Z,100754.91
2022-11-27T10:20:01.450Z,100751.44
2022-11-27T10:21:25.046Z,100746.25
2022-11-27T10:22:54.870Z,100741.06
2022-11-27T10:24:13.117Z,100749.66
2022-11-27T10:25:28.743Z,100751.44
2022-11-27T10:26:46.763Z,100750.59
2022-11-27T10:28:00.776Z,100744.53
2022-11-27T10:29:29.835Z,100741.84
2022-11-27T10:30:37.400Z,100735.97
2022-11-27T10:31:47.283Z,100740.22
2022-11-27T10:32:55.683Z,100734.19
2022-11-27T10:34:02.762Z,100733.31
2022-11-27T10:35:12.939Z,100716.88
2022-11-27T10:36:40.441Z,100710.84
2022-11-27T10:37:48.099Z,100715.22
2022-11-27T10:38:50.927Z,100705.81
2022-11-27T10:40:08.427Z,100703.31
2022-11-27T10:43:00.142Z,100691.19
2022-11-27T10:44:18.299Z,100685.09
2022-11-27T10:45:31.914Z,100673.88
2022-11-27T10:46:39.354Z,100664.28
2022-11-27T10:47:44.248Z,100669.38
2022-11-27T10:48:46.777Z,100659.72
2022-11-27T10:49:48.684Z,100651.91
2022-11-27T10:50:50.920Z,100657.88
2022-11-27T10:51:52.687Z,100649.09
2022-11-27T10:53:01.703Z,100639.47
2022-11-27T10:54:07.021Z,100646.22
2022-11-27T10:55:21.870Z,100634.84
2022-11-27T10:57:01.004Z,100626.75
2022-11-27T10:58:35.847Z,100628.47
2022-11-27T10:59:46.763Z,100625.34
2022-11-27T11:00:48.539Z,100621.03
2022-11-27T11:01:53.548Z,100626.06
2022-11-27T11:03:04.098Z,100616.34
2022-11-27T11:04:35.866Z,100616.97
2022-11-27T11:06:12.164Z,100614.28
2022-11-27T11:06:55.541Z,100609.16
2022-11-27T11:07:58.702Z,100603.00
2022-11-27T11:09:13.026Z,100599.72
2022-11-27T11:10:44.828Z,100594.84
2022-11-27T11:11:46.586Z,100593.00
2022-11-27T11:12:48.302Z,100595.59
2022-11-27T11:13:50.292Z,100586.22
2022-11-27T11:14:53.640Z,100590.81
2022-11-27T11:16:14.661Z,100596.22
2022-11-27T11:17:17.993Z,100587.38
2022-11-27T11:18:25.301Z,100596.38
2022-11-27T11:19:30.023Z,100600.44
2022-11-27T11:20:31.685Z,100601.94
2022-11-27T11:21:35.041Z,100602.69
2022-11-27T11:22:36.748Z,100584.63
2022-11-27T11:23:40.959Z,100595.66
2022-11-27T11:24:51.295Z,100599.00
2022-11-27T11:25:57.086Z,100594.59
2022-11-27T11:27:04.542Z,100604.13
2022-11-27T11:28:06.217Z,100602.38
2022-11-27T11:29:36.748Z,100610.88
2022-11-27T11:30:39.621Z,100621.34
2022-11-27T11:31:41.514Z,100624.75
2022-11-27T11:32:44.998Z,100618.59
2022-11-27T11:34:00.035Z,100626.31
2022-11-27T11:35:09.822Z,100624.38
2022-11-27T11:36:11.626Z,100622.56
2022-11-27T11:37:34.503Z,100626.38
2022-11-27T11:38:36.712Z,100595.47
2022-11-27T11:39:44.712Z,100617.72
2022-11-27T11:41:06.817Z,100617.81
2022-11-27T11:42:11.125Z,100614.47
2022-11-27T11:43:52.290Z,100617.91
2022-11-27T11:45:17.329Z,100615.34
2022-11-27T11:46:23.060Z,100603.19
2022-11-27T11:47:25.337Z,100615.13
2022-11-27T11:48:27.927Z,100620.16
2022-11-27T11:49:33.278Z,100602.81
2022-11-27T11:51:07.152Z,100604.38
2022-11-27T11:52:23.827Z,100609.63
2022-11-27T11:53:34.738Z,100608.28
2022-11-27T11:54:52.899Z,100601.56
2022-11-27T11:56:13.486Z,100598.00
2022-11-27T11:57:51.982Z,100598.66
2022-11-27T11:59:22.996Z,100589.28
2022-11-27T12:00:48.728Z,100588.09
2022-11-27T12:02:30.874Z,100580.91
2022-11-27T12:03:58.499Z,100573.81
2022-11-27T12:05:11.740Z,100571.13
2022-11-27T12:06:25.630Z,100570.13
2022-11-27T12:08:04.392Z,100564.78
2022-11-27T12:09:15.346Z,100563.13
2022-11-27T12:10:31.638Z,100558.94
2022-11-27T12:11:47.103Z,100548.84
2022-11-27T12:13:00.691Z,100561.19
2022-11-27T12:14:07.744Z,100552.75
2022-11-27T12:15:26.196Z,100559.97
2022-11-27T12:16:52.612Z,100550.66
2022-11-27T12:18:22.603Z,100547.25
2022-11-27T12:19:33.180Z,100542.97
2022-11-27T12:21:08.888Z,100542.00
2022-11-27T12:22:13.783Z,100544.66
2022-11-27T12:23:39.464Z,100544.06
2022-11-27T12:25:17.655Z,100534.63
2022-11-27T12:26:37.941Z,100534.44
2022-11-27T12:28:16.254Z,100532.34
2022-11-27T12:29:32.213Z,100528.78
2022-11-27T12:30:52.112Z,100528.53
2022-11-27T12:32:18.753Z,100527.47
2022-11-27T12:33:38.443Z,100530.81
2022-11-27T12:35:01.229Z,100528.38
2022-11-27T12:36:16.190Z,100520.69
2022-11-27T12:37:30.704Z,100503.59